Brightwood (Severna Park), MD

9:34 AM EST on December 07, 2016 (GMT -0500)
Shipley's Choice | | Change Station

Elev 164 ft 39.11 °N, 76.61 °W | Updated 32 seconds ago

Mostly Cloudy
Mostly Cloudy
43.5 °F
Feels Like 44 °F
N
0.0
Wind Variable Wind from West
Gusts 0.0 mph

Today
High -- | Low -- °F
--% Chance of Precip.
Yesterday
High -- | Low -- °F
Precip. -- in
Pressure 30.01 in
Visibility 9.0 miles
Clouds Few 4000 ft
Mostly Cloudy 14000 ft
Windchill 44 °F
Dew Point 43 °F
Humidity 97%
Rainfall 0.00 in
Snow Depth Not available.
7:12 AM 4:43 PM
First Quarter, 53% visible
METAR KBWI 071354Z 30003KT 9SM FEW040 BKN140 06/05 A3001 RMK AO2 SLP163 T00610050
Pressure 30.01 in
Visibility 9.0 miles
Clouds Few 4000 ft
Mostly Cloudy 14000 ft
Windchill 44 °F
Dew Point 43 °F
Humidity 97%
Rainfall 0.00 in
Snow Depth Not available.
7:12 AM 4:43 PM
First Quarter, 53% visible
METAR KBWI 071354Z 30003KT 9SM FEW040 BKN140 06/05 A3001 RMK AO2 SLP163 T00610050

10-Day Weather Forecast

Almanac

Astronomy

Dec. 07, 2016 Rise Set
Actual Time
Civil Twilight
Nautical Twilight
Astronomical Twilight
Moon
Length of Visible Light
Length of Day
Tomorrow will be .
, % of the Moon is Illuminated

Today's Extremes

State Highs State Lows

Community

WunderPhotos

Upload Photos

1,956,116 photos uploaded!

WunderBlog® & News

Nearby

Air Quality

  Air Quality AQ Index Pollutant
Not available.

Snow Depth

Station Depth Elevation

Earthquake Activity

City Distance Mag. Time & Date
Minimum magnitude displayed is 2.5.

Coastal Water Temperatures

Place Temperature

Stations

Nearby Weather Stations

Station Location Temp. Windchill Dew Point Humidity Wind Precip. Elev Updated Type
                   

Watches & Warnings

There are currently no watches in effect.